createdAt,value
2022-10-19T00:01:12.499Z,101759.19
2022-10-19T00:03:40.826Z,101759.97
2022-10-19T00:06:27.523Z,101756.38
2022-10-19T00:09:02.673Z,101754.22
2022-10-19T00:11:30.595Z,101750.38
2022-10-19T00:13:58.965Z,101752.41
2022-10-19T00:16:28.294Z,101748.63
2022-10-19T00:18:59.036Z,101739.94
2022-10-19T00:21:26.920Z,101740.09
2022-10-19T00:23:54.340Z,101738.28
2022-10-19T00:26:22.212Z,101729.72
2022-10-19T00:28:49.900Z,101733.09
2022-10-19T00:31:17.841Z,101728.28
2022-10-19T00:33:46.923Z,101735.59
2022-10-19T00:36:17.098Z,101736.16
2022-10-19T00:38:44.574Z,101733.59
2022-10-19T00:41:12.782Z,101728.00
2022-10-19T00:43:52.251Z,101729.31
2022-10-19T00:46:20.503Z,101725.94
2022-10-19T00:51:16.459Z,101724.47
2022-10-19T00:53:44.238Z,101726.69
2022-10-19T00:56:14.639Z,101729.59
2022-10-19T00:58:43.743Z,101720.59
2022-10-19T01:01:13.960Z,101716.78
2022-10-19T01:03:41.952Z,101716.69
2022-10-19T01:06:10.324Z,101716.78
2022-10-19T01:08:37.888Z,101713.44
2022-10-19T01:11:16.978Z,101719.28
2022-10-19T01:13:49.262Z,101718.06
2022-10-19T01:16:22.483Z,101721.56
2022-10-19T01:18:49.862Z,101713.56
2022-10-19T01:21:34.477Z,101713.69
2022-10-19T01:24:18.073Z,101714.66
2022-10-19T01:27:04.551Z,101708.31
2022-10-19T01:29:47.179Z,101702.97
2022-10-19T01:32:22.460Z,101701.84
2022-10-19T01:34:59.762Z,101701.94
2022-10-19T01:37:32.991Z,101694.31
2022-10-19T01:40:07.833Z,101691.09
2022-10-19T01:42:46.939Z,101696.16
2022-10-19T01:45:18.355Z,101697.03
2022-10-19T01:47:53.279Z,101692.69
2022-10-19T01:50:41.543Z,101687.16
2022-10-19T01:53:10.437Z,101687.88
2022-10-19T01:55:39.865Z,101683.00
2022-10-19T01:58:09.575Z,101694.66
2022-10-19T02:00:39.315Z,101683.75
2022-10-19T02:03:07.335Z,101688.56
2022-10-19T02:05:36.254Z,101677.25
2022-10-19T02:08:11.040Z,101677.34
2022-10-19T02:10:40.207Z,101681.47
2022-10-19T02:13:08.302Z,101674.97
2022-10-19T02:15:38.335Z,101670.09
2022-10-19T02:18:07.218Z,101669.31
2022-10-19T02:20:36.550Z,101670.00
2022-10-19T02:23:07.321Z,101673.09
2022-10-19T02:25:35.485Z,101678.72
2022-10-19T02:28:03.696Z,101682.19
2022-10-19T02:30:31.246Z,101679.34
2022-10-19T02:32:58.579Z,101669.78
2022-10-19T02:35:26.431Z,101665.44
2022-10-19T02:37:55.879Z,101669.13
2022-10-19T02:40:24.184Z,101661.78
2022-10-19T02:42:56.642Z,101661.78
2022-10-19T02:45:28.317Z,101657.97
2022-10-19T02:48:01.806Z,101661.56
2022-10-19T02:50:29.310Z,101653.34
2022-10-19T02:52:58.327Z,101654.25
2022-10-19T02:55:25.791Z,101653.41
2022-10-19T02:57:53.844Z,101655.41
2022-10-19T03:00:21.662Z,101652.44
2022-10-19T03:02:49.415Z,101655.88
2022-10-19T03:05:16.739Z,101654.34
2022-10-19T03:07:44.491Z,101650.00
2022-10-19T03:10:12.015Z,101651.06
2022-10-19T03:12:39.527Z,101652.19
2022-10-19T03:15:07.135Z,101649.75
2022-10-19T03:17:35.971Z,101655.38
2022-10-19T03:20:03.871Z,101648.81
2022-10-19T03:22:31.544Z,101646.28
2022-10-19T03:24:59.219Z,101645.22
2022-10-19T03:27:26.613Z,101648.38
2022-10-19T03:29:55.048Z,101645.31
2022-10-19T03:32:22.903Z,101644.38
2022-10-19T03:34:50.216Z,101644.25
2022-10-19T03:37:18.035Z,101645.22
2022-10-19T03:39:45.455Z,101647.09
2022-10-19T03:42:12.719Z,101643.69
2022-10-19T03:44:40.026Z,101642.84
2022-10-19T03:47:07.739Z,101645.00
2022-10-19T03:49:38.038Z,101651.16
2022-10-19T03:52:10.094Z,101644.38
2022-10-19T03:54:37.604Z,101640.03
2022-10-19T03:57:05.463Z,101641.78
2022-10-19T03:59:32.850Z,101634.03
2022-10-19T04:02:00.211Z,101642.75
2022-10-19T04:04:27.485Z,101646.13
2022-10-19T04:06:54.849Z,101650.00
2022-10-19T04:09:22.717Z,101647.47
2022-10-19T04:11:50.410Z,101653.59
2022-10-19T04:14:31.573Z,101650.66
2022-10-19T04:17:02.119Z,101642.91
2022-10-19T04:19:29.947Z,101642.91
2022-10-19T04:21:57.325Z,101639.44
2022-10-19T04:24:24.864Z,101645.66
2022-10-19T04:26:54.650Z,101642.41
2022-10-19T04:29:26.284Z,101642.34
2022-10-19T04:31:57.237Z,101645.19
2022-10-19T04:34:25.127Z,101641.94
2022-10-19T04:36:53.328Z,101645.72
2022-10-19T04:39:21.082Z,101641.69
2022-10-19T04:41:48.915Z,101643.28
2022-10-19T04:44:16.272Z,101637.47
2022-10-19T04:46:43.795Z,101641.09
2022-10-19T04:49:11.046Z,101642.88
2022-10-19T04:51:38.507Z,101648.03
2022-10-19T04:54:05.833Z,101642.88
2022-10-19T04:56:33.080Z,101644.78
2022-10-19T04:59:01.045Z,101643.72
2022-10-19T05:01:29.419Z,101649.13
2022-10-19T05:03:58.420Z,101642.88
2022-10-19T05:06:26.113Z,101646.97
2022-10-19T05:08:53.472Z,101648.03
2022-10-19T05:11:21.134Z,101655.75
2022-10-19T05:13:49.347Z,101651.00
2022-10-19T05:16:18.090Z,101654.81
2022-10-19T05:18:49.558Z,101649.53
2022-10-19T05:21:17.447Z,101658.53
2022-10-19T05:23:44.926Z,101651.56
2022-10-19T05:26:15.476Z,101648.56
2022-10-19T05:28:43.280Z,101647.03
2022-10-19T05:31:12.659Z,101646.88
2022-10-19T05:33:41.009Z,101641.00
2022-10-19T05:36:18.985Z,101647.03
2022-10-19T05:38:46.896Z,101646.28
2022-10-19T05:41:15.370Z,101657.56
2022-10-19T05:43:42.771Z,101653.44
2022-10-19T05:46:12.490Z,101657.59
2022-10-19T05:48:40.567Z,101653.56
2022-10-19T05:51:09.067Z,101652.81
2022-10-19T05:53:36.432Z,101656.50
2022-10-19T05:56:08.198Z,101654.81
2022-10-19T05:58:35.753Z,101655.03
2022-10-19T06:01:03.922Z,101651.84
2022-10-19T06:03:31.715Z,101654.34
2022-10-19T06:05:59.039Z,101653.66
2022-10-19T06:08:26.899Z,101656.78
2022-10-19T06:11:04.192Z,101661.34
2022-10-19T06:13:31.863Z,101670.13
2022-10-19T06:15:59.286Z,101672.34
2022-10-19T06:18:26.702Z,101666.44
2022-10-19T06:20:54.151Z,101665.94
2022-10-19T06:23:21.505Z,101671.63
2022-10-19T06:25:49.231Z,101679.66
2022-10-19T06:28:17.548Z,101683.34
2022-10-19T06:30:45.051Z,101678.09
2022-10-19T06:33:12.427Z,101679.84
2022-10-19T06:35:42.379Z,101680.34
2022-10-19T06:38:09.835Z,101697.84
2022-10-19T06:40:37.279Z,101693.41
2022-10-19T06:43:05.053Z,101691.47
2022-10-19T06:45:35.916Z,101697.94
2022-10-19T06:48:06.810Z,101704.63
2022-10-19T06:50:35.709Z,101711.00
2022-10-19T06:53:03.850Z,101703.06
2022-10-19T06:55:32.024Z,101704.88
2022-10-19T06:58:01.799Z,101704.28
2022-10-19T07:00:29.655Z,101705.16
2022-10-19T07:02:59.556Z,101701.44
2022-10-19T07:05:26.982Z,101703.38
2022-10-19T07:07:54.715Z,101700.16
2022-10-19T07:10:21.992Z,101697.25
2022-10-19T07:12:49.359Z,101698.09
2022-10-19T07:15:17.219Z,101694.06
2022-10-19T07:17:45.308Z,101697.78
2022-10-19T07:20:12.834Z,101703.13
2022-10-19T07:22:40.180Z,101694.28
2022-10-19T07:25:08.735Z,101703.63
2022-10-19T07:27:37.798Z,101698.56
2022-10-19T07:30:06.120Z,101687.94
2022-10-19T07:32:33.456Z,101693.47
2022-10-19T07:35:00.817Z,101690.81
2022-10-19T07:37:29.098Z,101691.81
2022-10-19T07:39:56.360Z,101698.50
2022-10-19T07:42:23.823Z,101702.50
2022-10-19T07:44:51.324Z,101705.03
2022-10-19T07:47:19.373Z,101702.75
2022-10-19T07:49:47.620Z,101703.72
2022-10-19T07:52:15.309Z,101699.59
2022-10-19T07:54:42.591Z,101696.94
2022-10-19T07:57:12.724Z,101702.69
2022-10-19T07:59:40.693Z,101697.88
2022-10-19T08:02:14.632Z,101700.94
2022-10-19T08:04:59.784Z,101701.53
2022-10-19T08:07:29.640Z,101700.81
2022-10-19T08:09:57.067Z,101700.56
2022-10-19T08:12:24.371Z,101699.88
2022-10-19T08:14:51.591Z,101695.72
2022-10-19T08:17:19.011Z,101700.63
2022-10-19T08:19:47.047Z,101698.53
2022-10-19T08:22:14.917Z,101704.28
2022-10-19T08:24:42.178Z,101697.16
2022-10-19T08:27:09.581Z,101696.72
2022-10-19T08:29:37.285Z,101698.22
2022-10-19T08:32:04.997Z,101691.25
2022-10-19T08:34:33.340Z,101695.34
2022-10-19T08:37:06.833Z,101692.50
2022-10-19T08:39:42.722Z,101691.19
2022-10-19T08:42:16.223Z,101686.28
2022-10-19T08:44:50.176Z,101682.59
2022-10-19T08:47:53.207Z,101680.56
2022-10-19T08:50:22.398Z,101678.59
2022-10-19T08:52:53.833Z,101685.03
2022-10-19T08:55:28.542Z,101672.97
2022-10-19T08:58:04.933Z,101670.09
2022-10-19T09:03:37.607Z,101668.94
2022-10-19T09:06:20.235Z,101678.41
2022-10-19T09:08:48.691Z,101673.03
2022-10-19T09:11:16.838Z,101672.91
2022-10-19T09:14:04.200Z,101668.38
2022-10-19T09:16:33.111Z,101675.69
2022-10-19T09:19:01.021Z,101678.72
2022-10-19T09:21:47.246Z,101675.56
2022-10-19T09:24:27.714Z,101677.44
2022-10-19T09:26:59.741Z,101668.03
2022-10-19T09:29:39.469Z,101666.56
2022-10-19T09:32:13.118Z,101662.34
2022-10-19T09:34:46.798Z,101668.19
2022-10-19T09:37:21.883Z,101671.53
2022-10-19T09:39:55.172Z,101676.31
2022-10-19T09:42:25.740Z,101677.47
2022-10-19T09:44:54.451Z,101677.81
2022-10-19T09:47:34.309Z,101672.78
2022-10-19T09:50:08.579Z,101671.03
2022-10-19T09:52:36.060Z,101668.34
2022-10-19T09:55:06.927Z,101674.00
2022-10-19T09:57:41.652Z,101673.81
2022-10-19T10:00:29.184Z,101667.75
2022-10-19T10:02:56.910Z,101665.13
2022-10-19T10:05:33.309Z,101673.00
2022-10-19T10:08:01.959Z,101669.34
2022-10-19T10:10:34.612Z,101668.88
2022-10-19T10:13:02.608Z,101664.16
2022-10-19T10:15:35.391Z,101668.84
2022-10-19T10:18:03.672Z,101668.63
2022-10-19T10:20:32.722Z,101675.56
2022-10-19T10:23:02.515Z,101675.31
2022-10-19T10:25:31.285Z,101678.84
2022-10-19T10:28:00.720Z,101671.88
2022-10-19T10:30:30.595Z,101670.44
2022-10-19T10:33:08.052Z,101667.97
2022-10-19T10:35:49.218Z,101668.31
2022-10-19T10:38:18.164Z,101656.13
2022-10-19T10:40:50.951Z,101659.06
2022-10-19T10:43:21.211Z,101660.00
2022-10-19T10:45:53.009Z,101652.03
2022-10-19T10:48:31.970Z,101646.50
2022-10-19T10:51:00.971Z,101640.91
2022-10-19T10:53:32.387Z,101630.91
2022-10-19T10:55:59.812Z,101635.09
2022-10-19T10:58:33.757Z,101626.66
2022-10-19T11:01:07.802Z,101621.34
2022-10-19T11:03:38.001Z,101630.03
2022-10-19T11:06:05.514Z,101610.69
2022-10-19T11:08:33.052Z,101607.72
2022-10-19T11:11:10.578Z,101605.31
2022-10-19T11:13:41.868Z,101596.63
2022-10-19T11:16:13.799Z,101601.97
2022-10-19T11:19:19.317Z,101594.50
2022-10-19T11:21:46.831Z,101597.78
2022-10-19T11:24:23.453Z,101594.47
2022-10-19T11:26:57.265Z,101587.28
2022-10-19T11:29:30.465Z,101585.06
2022-10-19T11:31:58.190Z,101582.63
2022-10-19T11:34:44.513Z,101574.69
2022-10-19T11:37:20.686Z,101568.22
2022-10-19T11:39:53.844Z,101574.88
2022-10-19T11:42:40.480Z,101561.09
2022-10-19T11:45:19.357Z,101556.22
2022-10-19T11:47:52.088Z,101559.91
2022-10-19T11:50:24.302Z,101555.16
2022-10-19T11:52:56.516Z,101548.47
2022-10-19T11:55:46.630Z,101545.00
2022-10-19T11:58:35.003Z,101540.72
2022-10-19T12:01:21.120Z,101535.88
2022-10-19T12:04:14.216Z,101542.41
2022-10-19T12:06:41.437Z,101543.13
2022-10-19T12:09:24.899Z,101533.69
2022-10-19T12:11:59.745Z,101536.28
2022-10-19T12:14:30.952Z,101525.75
2022-10-19T12:17:01.228Z,101528.31
2022-10-19T12:19:33.932Z,101520.56
2022-10-19T12:22:07.182Z,101520.56
2022-10-19T12:24:36.029Z,101509.72
2022-10-19T12:27:05.584Z,101518.38
2022-10-19T12:29:42.452Z,101512.00
2022-10-19T12:32:12.098Z,101525.41
2022-10-19T12:34:54.892Z,101515.72
2022-10-19T12:37:35.560Z,101504.03
2022-10-19T12:40:19.490Z,101498.91
2022-10-19T12:42:53.092Z,101496.34
2022-10-19T12:45:35.200Z,101488.06
2022-10-19T12:48:08.623Z,101483.38
2022-10-19T12:50:48.338Z,101489.03
2022-10-19T12:53:30.833Z,101483.38
2022-10-19T12:56:03.857Z,101471.63
2022-10-19T12:58:38.155Z,101482.63
2022-10-19T13:01:07.438Z,101465.50
2022-10-19T13:03:37.232Z,101464.16
2022-10-19T13:06:09.877Z,101460.56
2022-10-19T13:08:47.801Z,101451.53
2022-10-19T13:11:15.647Z,101461.84
2022-10-19T13:13:55.001Z,101453.66
2022-10-19T13:16:28.511Z,101446.97
2022-10-19T13:19:01.864Z,101443.41
2022-10-19T13:21:48.694Z,101448.59
2022-10-19T13:24:20.226Z,101444.22
2022-10-19T13:26:47.571Z,101436.28
2022-10-19T13:29:24.797Z,101430.13
2022-10-19T13:31:52.643Z,101438.34
2022-10-19T13:34:20.279Z,101435.84
2022-10-19T13:37:13.654Z,101429.59
2022-10-19T13:39:42.267Z,101420.78
2022-10-19T13:42:27.491Z,101422.72
2022-10-19T13:44:56.235Z,101415.59
2022-10-19T13:47:31.471Z,101417.91
2022-10-19T13:50:02.269Z,101415.09
2022-10-19T13:52:42.935Z,101417.78
2022-10-19T13:55:13.807Z,101413.75
2022-10-19T13:57:41.468Z,101414.19
2022-10-19T14:00:11.613Z,101417.59
2022-10-19T14:03:04.409Z,101410.09
2022-10-19T14:05:53.754Z,101409.06
2022-10-19T14:08:36.454Z,101418.94
2022-10-19T14:11:04.091Z,101408.50
2022-10-19T14:13:31.893Z,101408.84
2022-10-19T14:16:02.801Z,101408.53
2022-10-19T14:18:32.028Z,101413.91
2022-10-19T14:21:10.224Z,101401.00
2022-10-19T14:23:40.217Z,101406.84
2022-10-19T14:26:13.832Z,101396.13
2022-10-19T14:28:41.578Z,101394.78
2022-10-19T14:31:10.505Z,101402.97
2022-10-19T14:33:41.612Z,101407.38
2022-10-19T14:36:14.697Z,101401.34
2022-10-19T14:38:46.556Z,101396.41
2022-10-19T14:41:20.131Z,101398.88
2022-10-19T14:43:47.970Z,101395.09
2022-10-19T14:46:16.450Z,101392.25
2022-10-19T14:48:45.660Z,101388.94
2022-10-19T14:51:36.870Z,101391.59
2022-10-19T14:54:22.495Z,101397.63
2022-10-19T14:56:49.721Z,101396.22
2022-10-19T14:59:24.877Z,101400.78
2022-10-19T15:01:57.297Z,101393.31
2022-10-19T15:04:30.038Z,101392.69
2022-10-19T15:06:59.660Z,101387.56
2022-10-19T15:09:37.811Z,101393.09
2022-10-19T15:12:19.501Z,101386.88
2022-10-19T15:14:47.808Z,101390.38
2022-10-19T15:17:29.755Z,101391.69
2022-10-19T15:20:00.804Z,101393.75
2022-10-19T15:22:32.068Z,101392.31
2022-10-19T15:25:00.029Z,101398.06
2022-10-19T15:27:32.509Z,101398.38
2022-10-19T15:30:02.911Z,101394.38
2022-10-19T15:32:36.272Z,101406.84
2022-10-19T15:35:12.060Z,101398.03
2022-10-19T15:37:42.111Z,101402.38
2022-10-19T15:40:13.633Z,101404.06
2022-10-19T15:42:44.475Z,101404.03
2022-10-19T15:45:50.029Z,101404.63
2022-10-19T15:48:23.172Z,101399.03
2022-10-19T15:50:52.027Z,101397.22
2022-10-19T15:53:20.228Z,101398.59
2022-10-19T15:55:48.468Z,101400.41
2022-10-19T15:58:16.134Z,101399.19
2022-10-19T16:00:43.957Z,101391.88
2022-10-19T16:03:11.535Z,101397.78
2022-10-19T16:05:39.215Z,101393.44
2022-10-19T16:08:10.109Z,101392.91
2022-10-19T16:10:40.654Z,101385.19
2022-10-19T16:13:07.943Z,101391.22
2022-10-19T16:15:35.157Z,101391.34
2022-10-19T16:18:02.923Z,101392.06
2022-10-19T16:20:30.296Z,101391.78
2022-10-19T16:22:58.651Z,101392.34
2022-10-19T16:25:26.061Z,101382.84
2022-10-19T16:27:53.388Z,101392.50
2022-10-19T16:30:20.716Z,101390.81
2022-10-19T16:32:48.676Z,101392.81
2022-10-19T16:35:16.947Z,101393.66
2022-10-19T16:37:44.302Z,101400.53
2022-10-19T16:40:11.769Z,101396.50
2022-10-19T16:42:39.321Z,101397.47
2022-10-19T16:47:34.461Z,101396.88
2022-10-19T16:50:02.941Z,101400.72
2022-10-19T16:52:34.517Z,101397.84
2022-10-19T16:55:02.412Z,101401.63
2022-10-19T16:57:29.893Z,101401.75
2022-10-19T16:59:57.327Z,101397.38
2022-10-19T17:02:24.992Z,101404.50
2022-10-19T17:04:53.181Z,101409.81
2022-10-19T17:07:20.767Z,101413.47
2022-10-19T17:09:52.274Z,101410.78
2022-10-19T17:12:22.924Z,101415.75
2022-10-19T17:14:51.324Z,101417.69
2022-10-19T17:17:19.398Z,101419.25
2022-10-19T17:19:47.651Z,101415.53
2022-10-19T17:22:15.367Z,101421.31
2022-10-19T17:24:43.179Z,101429.91
2022-10-19T17:27:10.981Z,101424.97
2022-10-19T17:29:38.234Z,101430.53
2022-10-19T17:32:05.761Z,101434.00
2022-10-19T17:34:33.128Z,101442.09
2022-10-19T17:37:00.379Z,101437.72
2022-10-19T17:39:29.897Z,101438.34
2022-10-19T17:42:01.654Z,101442.94
2022-10-19T17:44:31.307Z,101443.53
2022-10-19T17:46:59.775Z,101439.50
2022-10-19T17:49:27.067Z,101445.72
2022-10-19T17:51:54.338Z,101446.63
2022-10-19T17:54:21.835Z,101452.38
2022-10-19T17:56:49.631Z,101447.50
2022-10-19T17:59:17.281Z,101450.78
2022-10-19T18:01:45.892Z,101459.91
2022-10-19T18:04:13.771Z,101452.34
2022-10-19T18:06:41.503Z,101458.84
2022-10-19T18:09:09.658Z,101458.19
2022-10-19T18:11:39.539Z,101451.31
2022-10-19T18:14:08.380Z,101450.84
2022-10-19T18:16:37.938Z,101451.78
2022-10-19T18:19:05.906Z,101446.94
2022-10-19T18:21:36.126Z,101447.81
2022-10-19T18:24:03.494Z,101453.75
2022-10-19T18:26:31.808Z,101445.06
2022-10-19T18:29:00.566Z,101447.81
2022-10-19T18:31:29.638Z,101452.13
2022-10-19T18:33:59.959Z,101456.22
2022-10-19T18:36:27.698Z,101446.66
2022-10-19T18:38:56.734Z,101454.38
2022-10-19T18:41:25.245Z,101456.78
2022-10-19T18:43:53.922Z,101450.63
2022-10-19T18:46:22.003Z,101453.84
2022-10-19T18:48:50.000Z,101452.59
2022-10-19T18:51:18.455Z,101461.72
2022-10-19T18:53:46.123Z,101461.88
2022-10-19T18:56:14.890Z,101462.16
2022-10-19T18:58:43.777Z,101459.53
2022-10-19T19:01:16.233Z,101468.94
2022-10-19T19:03:45.434Z,101472.84
2022-10-19T19:06:13.486Z,101477.91
2022-10-19T19:08:41.620Z,101474.09
2022-10-19T19:11:10.526Z,101476.91
2022-10-19T19:13:38.254Z,101482.09
2022-10-19T19:16:06.958Z,101480.28
2022-10-19T19:18:35.186Z,101470.63
2022-10-19T19:21:03.774Z,101486.84
2022-10-19T19:23:31.371Z,101476.66
2022-10-19T19:25:59.030Z,101483.81
2022-10-19T19:28:26.951Z,101479.84
2022-10-19T19:30:54.341Z,101484.78
2022-10-19T19:33:21.932Z,101484.78
2022-10-19T19:35:50.405Z,101494.56
2022-10-19T19:38:18.019Z,101494.00
2022-10-19T19:40:46.541Z,101505.50
2022-10-19T19:43:15.543Z,101497.25
2022-10-19T19:45:43.677Z,101503.34
2022-10-19T19:48:11.493Z,101506.13
2022-10-19T19:50:39.179Z,101507.69
2022-10-19T19:53:06.890Z,101510.06
2022-10-19T19:55:38.870Z,101509.34
2022-10-19T19:58:06.931Z,101509.75
2022-10-19T20:00:34.153Z,101518.13
2022-10-19T20:03:01.431Z,101515.88
2022-10-19T20:05:29.779Z,101513.50
2022-10-19T20:07:57.881Z,101511.69
2022-10-19T20:10:25.727Z,101512.50
2022-10-19T20:12:53.316Z,101514.34
2022-10-19T20:15:21.799Z,101516.13
2022-10-19T20:17:49.011Z,101512.19
2022-10-19T20:20:19.684Z,101513.34
2022-10-19T20:22:47.814Z,101514.44
2022-10-19T20:25:15.717Z,101521.88
2022-10-19T20:27:42.946Z,101530.59
2022-10-19T20:30:11.885Z,101527.50
2022-10-19T20:32:39.437Z,101526.66
2022-10-19T20:35:07.557Z,101530.84
2022-10-19T20:37:34.969Z,101525.41
2022-10-19T20:40:08.630Z,101529.63
2022-10-19T20:42:36.982Z,101532.13
2022-10-19T20:45:04.711Z,101537.59
2022-10-19T20:47:32.608Z,101539.94
2022-10-19T20:50:00.879Z,101539.66
2022-10-19T20:52:28.141Z,101540.75
2022-10-19T20:54:55.452Z,101531.81
2022-10-19T20:57:23.159Z,101534.78
2022-10-19T20:59:50.863Z,101540.22
2022-10-19T21:02:18.961Z,101529.00
2022-10-19T21:04:46.637Z,101526.34
2022-10-19T21:07:13.915Z,101528.84
2022-10-19T21:09:41.243Z,101535.16
2022-10-19T21:12:08.734Z,101535.16
2022-10-19T21:14:37.219Z,101538.66
2022-10-19T21:17:05.032Z,101535.28
2022-10-19T21:19:32.788Z,101529.41
2022-10-19T21:22:02.264Z,101533.03
2022-10-19T21:24:32.505Z,101537.19
2022-10-19T21:27:01.517Z,101539.41
2022-10-19T21:29:29.797Z,101541.09
2022-10-19T21:31:57.071Z,101544.72
2022-10-19T21:34:25.933Z,101546.06
2022-10-19T21:36:54.194Z,101547.75
2022-10-19T21:39:22.239Z,101551.09
2022-10-19T21:41:50.042Z,101556.69
2022-10-19T21:44:18.005Z,101548.19
2022-10-19T21:46:49.314Z,101562.19
2022-10-19T21:49:17.371Z,101558.50
2022-10-19T21:51:54.567Z,101556.31
2022-10-19T21:54:24.925Z,101559.47
2022-10-19T21:56:53.403Z,101555.25
2022-10-19T21:59:20.905Z,101553.66
2022-10-19T22:01:49.168Z,101547.25
2022-10-19T22:04:18.376Z,101544.97
2022-10-19T22:06:46.993Z,101538.69
2022-10-19T22:09:16.631Z,101545.16
2022-10-19T22:11:45.010Z,101549.91
2022-10-19T22:14:13.764Z,101548.09
2022-10-19T22:16:41.864Z,101548.66
2022-10-19T22:19:10.142Z,101547.66
2022-10-19T22:24:13.229Z,101541.88
2022-10-19T22:26:42.373Z,101539.03
2022-10-19T22:29:10.559Z,101539.72
2022-10-19T22:31:38.713Z,101544.66
2022-10-19T22:34:07.910Z,101542.38
2022-10-19T22:36:35.866Z,101544.56
2022-10-19T22:39:03.342Z,101548.03
2022-10-19T22:42:07.965Z,101548.59
2022-10-19T22:45:12.634Z,101542.78
2022-10-19T22:47:45.702Z,101555.47
2022-10-19T22:50:13.204Z,101559.69
2022-10-19T22:52:41.015Z,101557.66
2022-10-19T22:55:09.034Z,101558.88
2022-10-19T22:57:36.285Z,101563.09
2022-10-19T23:00:04.156Z,101559.28
2022-10-19T23:02:31.444Z,101556.16
2022-10-19T23:04:58.921Z,101570.06
2022-10-19T23:07:26.720Z,101564.75
2022-10-19T23:09:54.017Z,101563.88
2022-10-19T23:12:21.428Z,101560.84
2022-10-19T23:14:49.058Z,101551.00
2022-10-19T23:17:16.316Z,101553.28
2022-10-19T23:19:44.086Z,101559.03
2022-10-19T23:22:11.454Z,101556.41
2022-10-19T23:24:38.948Z,101552.38
2022-10-19T23:27:06.251Z,101557.19
2022-10-19T23:29:34.063Z,101557.78
2022-10-19T23:32:01.855Z,101553.94
2022-10-19T23:34:29.679Z,101554.66
2022-10-19T23:36:57.092Z,101554.00
2022-10-19T23:39:24.974Z,101559.47
2022-10-19T23:41:52.247Z,101561.53
2022-10-19T23:44:19.506Z,101561.53
2022-10-19T23:46:47.169Z,101550.09
2022-10-19T23:49:14.459Z,101561.91
2022-10-19T23:51:41.922Z,101561.81
2022-10-19T23:54:09.258Z,101567.13
2022-10-19T23:56:36.545Z,101571.97
2022-10-19T23:59:07.298Z,101572.56
